sensor_id;sensor_type;location;lat;lon;timestamp;P1;durP1;ratioP1;P2;durP2;ratioP2
5147;SDS011;2592;48.140;7.614;2023-09-07T00:00:45;9.20;;;6.40;;
5147;SDS011;2592;48.140;7.614;2023-09-07T00:03:12;11.63;;;7.27;;
5147;SDS011;2592;48.140;7.614;2023-09-07T00:05:39;11.17;;;7.67;;
5147;SDS011;2592;48.140;7.614;2023-09-07T00:08:05;8.47;;;7.03;;
5147;SDS011;2592;48.140;7.614;2023-09-07T00:10:32;11.77;;;7.00;;
5147;SDS011;2592;48.140;7.614;2023-09-07T00:13:00;10.40;;;7.27;;
5147;SDS011;2592;48.140;7.614;2023-09-07T00:15:27;23.73;;;6.83;;
5147;SDS011;2592;48.140;7.614;2023-09-07T00:17:55;9.03;;;7.10;;
5147;SDS011;2592;48.140;7.614;2023-09-07T00:20:21;8.67;;;7.20;;
5147;SDS011;2592;48.140;7.614;2023-09-07T00:22:48;11.53;;;7.30;;
5147;SDS011;2592;48.140;7.614;2023-09-07T00:25:15;10.13;;;7.80;;
5147;SDS011;2592;48.140;7.614;2023-09-07T00:27:41;7.97;;;6.77;;
5147;SDS011;2592;48.140;7.614;2023-09-07T00:30:08;13.00;;;7.63;;
5147;SDS011;2592;48.140;7.614;2023-09-07T00:32:35;7.70;;;6.73;;
5147;SDS011;2592;48.140;7.614;2023-09-07T00:35:04;9.77;;;7.33;;
5147;SDS011;2592;48.140;7.614;2023-09-07T00:37:30;9.10;;;6.47;;
5147;SDS011;2592;48.140;7.614;2023-09-07T00:39:57;11.53;;;7.27;;
5147;SDS011;2592;48.140;7.614;2023-09-07T00:42:23;7.67;;;6.77;;
5147;SDS011;2592;48.140;7.614;2023-09-07T00:44:50;12.80;;;8.10;;
5147;SDS011;2592;48.140;7.614;2023-09-07T00:47:16;14.40;;;6.10;;
5147;SDS011;2592;48.140;7.614;2023-09-07T00:49:43;7.97;;;6.70;;
5147;SDS011;2592;48.140;7.614;2023-09-07T00:52:10;8.47;;;7.00;;
5147;SDS011;2592;48.140;7.614;2023-09-07T00:54:37;14.93;;;7.30;;
5147;SDS011;2592;48.140;7.614;2023-09-07T00:57:06;8.50;;;6.70;;
5147;SDS011;2592;48.140;7.614;2023-09-07T00:59:32;8.63;;;6.67;;
5147;SDS011;2592;48.140;7.614;2023-09-07T01:01:59;11.77;;;7.37;;
5147;SDS011;2592;48.140;7.614;2023-09-07T01:04:25;11.73;;;7.47;;
5147;SDS011;2592;48.140;7.614;2023-09-07T01:06:52;10.47;;;7.07;;
5147;SDS011;2592;48.140;7.614;2023-09-07T01:09:21;7.77;;;6.90;;
5147;SDS011;2592;48.140;7.614;2023-09-07T01:11:49;10.27;;;6.90;;
5147;SDS011;2592;48.140;7.614;2023-09-07T01:14:17;12.63;;;6.60;;
5147;SDS011;2592;48.140;7.614;2023-09-07T01:16:44;11.10;;;7.17;;
5147;SDS011;2592;48.140;7.614;2023-09-07T01:19:10;9.73;;;6.80;;
5147;SDS011;2592;48.140;7.614;2023-09-07T01:21:38;17.33;;;7.70;;
5147;SDS011;2592;48.140;7.614;2023-09-07T01:24:06;10.37;;;6.50;;
5147;SDS011;2592;48.140;7.614;2023-09-07T01:26:33;12.13;;;8.27;;
5147;SDS011;2592;48.140;7.614;2023-09-07T01:29:00;8.90;;;6.93;;
5147;SDS011;2592;48.140;7.614;2023-09-07T01:31:26;9.77;;;7.13;;
5147;SDS011;2592;48.140;7.614;2023-09-07T01:33:53;12.00;;;7.90;;
5147;SDS011;2592;48.140;7.614;2023-09-07T01:36:20;8.83;;;7.80;;
5147;SDS011;2592;48.140;7.614;2023-09-07T01:38:47;15.03;;;8.53;;
5147;SDS011;2592;48.140;7.614;2023-09-07T01:41:14;8.87;;;7.43;;
5147;SDS011;2592;48.140;7.614;2023-09-07T01:43:41;13.43;;;8.23;;
5147;SDS011;2592;48.140;7.614;2023-09-07T01:46:07;10.83;;;7.97;;
5147;SDS011;2592;48.140;7.614;2023-09-07T01:48:34;11.63;;;7.97;;
5147;SDS011;2592;48.140;7.614;2023-09-07T01:51:01;10.03;;;7.30;;
5147;SDS011;2592;48.140;7.614;2023-09-07T01:53:27;13.90;;;8.33;;
5147;SDS011;2592;48.140;7.614;2023-09-07T01:55:55;10.67;;;8.30;;
5147;SDS011;2592;48.140;7.614;2023-09-07T01:58:21;10.90;;;7.77;;
5147;SDS011;2592;48.140;7.614;2023-09-07T02:00:49;13.00;;;7.87;;
5147;SDS011;2592;48.140;7.614;2023-09-07T02:03:15;8.80;;;7.70;;
5147;SDS011;2592;48.140;7.614;2023-09-07T02:05:41;9.83;;;6.90;;
5147;SDS011;2592;48.140;7.614;2023-09-07T02:08:10;9.03;;;7.63;;
5147;SDS011;2592;48.140;7.614;2023-09-07T02:10:37;10.30;;;7.73;;
5147;SDS011;2592;48.140;7.614;2023-09-07T02:13:04;11.43;;;8.07;;
5147;SDS011;2592;48.140;7.614;2023-09-07T02:15:31;15.23;;;7.90;;
5147;SDS011;2592;48.140;7.614;2023-09-07T02:17:58;8.60;;;6.77;;
5147;SDS011;2592;48.140;7.614;2023-09-07T02:20:24;9.90;;;7.90;;
5147;SDS011;2592;48.140;7.614;2023-09-07T02:22:51;12.00;;;7.33;;
5147;SDS011;2592;48.140;7.614;2023-09-07T02:25:17;13.70;;;8.30;;
5147;SDS011;2592;48.140;7.614;2023-09-07T02:27:44;9.07;;;7.40;;
5147;SDS011;2592;48.140;7.614;2023-09-07T02:30:12;17.60;;;7.80;;
5147;SDS011;2592;48.140;7.614;2023-09-07T02:32:38;8.20;;;7.10;;
5147;SDS011;2592;48.140;7.614;2023-09-07T02:35:05;12.53;;;7.90;;
5147;SDS011;2592;48.140;7.614;2023-09-07T02:37:31;9.17;;;7.53;;
5147;SDS011;2592;48.140;7.614;2023-09-07T02:39:58;11.40;;;6.73;;
5147;SDS011;2592;48.140;7.614;2023-09-07T02:42:24;11.43;;;7.80;;
5147;SDS011;2592;48.140;7.614;2023-09-07T02:44:51;9.10;;;7.13;;
5147;SDS011;2592;48.140;7.614;2023-09-07T02:47:20;11.37;;;6.13;;
5147;SDS011;2592;48.140;7.614;2023-09-07T02:49:46;9.50;;;7.00;;
5147;SDS011;2592;48.140;7.614;2023-09-07T02:52:13;8.63;;;6.67;;
5147;SDS011;2592;48.140;7.614;2023-09-07T02:54:39;8.60;;;6.47;;
5147;SDS011;2592;48.140;7.614;2023-09-07T02:57:07;8.97;;;6.73;;
5147;SDS011;2592;48.140;7.614;2023-09-07T02:59:33;10.83;;;6.97;;
5147;SDS011;2592;48.140;7.614;2023-09-07T03:01:59;9.77;;;7.50;;
5147;SDS011;2592;48.140;7.614;2023-09-07T03:04:27;15.23;;;6.90;;
5147;SDS011;2592;48.140;7.614;2023-09-07T03:06:54;9.83;;;7.10;;
5147;SDS011;2592;48.140;7.614;2023-09-07T03:09:20;9.40;;;7.03;;
5147;SDS011;2592;48.140;7.614;2023-09-07T03:11:46;9.07;;;7.30;;
5147;SDS011;2592;48.140;7.614;2023-09-07T03:14:13;8.80;;;6.70;;
5147;SDS011;2592;48.140;7.614;2023-09-07T03:16:39;11.80;;;7.13;;
5147;SDS011;2592;48.140;7.614;2023-09-07T03:19:06;9.93;;;6.80;;
5147;SDS011;2592;48.140;7.614;2023-09-07T03:21:34;11.13;;;6.90;;
5147;SDS011;2592;48.140;7.614;2023-09-07T03:24:00;10.30;;;6.77;;
5147;SDS011;2592;48.140;7.614;2023-09-07T03:26:27;9.07;;;6.83;;
5147;SDS011;2592;48.140;7.614;2023-09-07T03:28:53;11.03;;;7.50;;
5147;SDS011;2592;48.140;7.614;2023-09-07T03:31:19;11.77;;;7.50;;
5147;SDS011;2592;48.140;7.614;2023-09-07T03:33:46;9.80;;;6.73;;
5147;SDS011;2592;48.140;7.614;2023-09-07T03:36:12;11.50;;;7.43;;
5147;SDS011;2592;48.140;7.614;2023-09-07T03:38:42;9.60;;;6.77;;
5147;SDS011;2592;48.140;7.614;2023-09-07T03:41:08;11.10;;;6.43;;
5147;SDS011;2592;48.140;7.614;2023-09-07T03:43:34;13.40;;;7.70;;
5147;SDS011;2592;48.140;7.614;2023-09-07T03:46:01;14.03;;;7.80;;
5147;SDS011;2592;48.140;7.614;2023-09-07T03:48:27;9.60;;;6.50;;
5147;SDS011;2592;48.140;7.614;2023-09-07T03:50:54;11.43;;;7.53;;
5147;SDS011;2592;48.140;7.614;2023-09-07T03:53:20;14.30;;;8.10;;
5147;SDS011;2592;48.140;7.614;2023-09-07T03:55:48;11.13;;;7.37;;
5147;SDS011;2592;48.140;7.614;2023-09-07T03:58:14;13.83;;;7.43;;
5147;SDS011;2592;48.140;7.614;2023-09-07T04:00:41;10.17;;;8.10;;
5147;SDS011;2592;48.140;7.614;2023-09-07T04:03:07;12.40;;;6.73;;
5147;SDS011;2592;48.140;7.614;2023-09-07T04:05:36;8.80;;;7.33;;
5147;SDS011;2592;48.140;7.614;2023-09-07T04:08:03;11.80;;;6.90;;
5147;SDS011;2592;48.140;7.614;2023-09-07T04:10:29;7.93;;;6.70;;
5147;SDS011;2592;48.140;7.614;2023-09-07T04:12:57;10.90;;;6.43;;
5147;SDS011;2592;48.140;7.614;2023-09-07T04:15:23;11.23;;;7.10;;
5147;SDS011;2592;48.140;7.614;2023-09-07T04:17:51;12.60;;;6.43;;
5147;SDS011;2592;48.140;7.614;2023-09-07T04:20:20;11.03;;;6.50;;
5147;SDS011;2592;48.140;7.614;2023-09-07T04:22:46;15.07;;;8.07;;
5147;SDS011;2592;48.140;7.614;2023-09-07T04:25:13;10.73;;;7.17;;
5147;SDS011;2592;48.140;7.614;2023-09-07T04:27:39;11.00;;;6.93;;
5147;SDS011;2592;48.140;7.614;2023-09-07T04:30:08;9.07;;;6.70;;
5147;SDS011;2592;48.140;7.614;2023-09-07T04:32:34;7.33;;;6.60;;
5147;SDS011;2592;48.140;7.614;2023-09-07T04:35:01;9.80;;;6.63;;
5147;SDS011;2592;48.140;7.614;2023-09-07T04:37:27;10.57;;;7.50;;
5147;SDS011;2592;48.140;7.614;2023-09-07T04:39:53;12.03;;;7.60;;
5147;SDS011;2592;48.140;7.614;2023-09-07T04:42:20;10.07;;;7.00;;
5147;SDS011;2592;48.140;7.614;2023-09-07T04:44:47;9.50;;;7.67;;
5147;SDS011;2592;48.140;7.614;2023-09-07T04:47:15;10.13;;;7.00;;
5147;SDS011;2592;48.140;7.614;2023-09-07T04:49:41;7.73;;;6.30;;
5147;SDS011;2592;48.140;7.614;2023-09-07T04:52:08;10.27;;;6.53;;
5147;SDS011;2592;48.140;7.614;2023-09-07T04:54:34;11.27;;;6.70;;
5147;SDS011;2592;48.140;7.614;2023-09-07T04:57:01;13.73;;;7.03;;
5147;SDS011;2592;48.140;7.614;2023-09-07T04:59:27;8.13;;;6.53;;
5147;SDS011;2592;48.140;7.614;2023-09-07T05:01:54;9.27;;;7.03;;
5147;SDS011;2592;48.140;7.614;2023-09-07T05:04:21;12.47;;;7.40;;
5147;SDS011;2592;48.140;7.614;2023-09-07T05:06:48;8.40;;;6.43;;
5147;SDS011;2592;48.140;7.614;2023-09-07T05:09:14;8.80;;;6.80;;
5147;SDS011;2592;48.140;7.614;2023-09-07T05:11:41;11.43;;;7.10;;
5147;SDS011;2592;48.140;7.614;2023-09-07T05:14:07;7.20;;;6.43;;
5147;SDS011;2592;48.140;7.614;2023-09-07T05:16:33;11.73;;;6.90;;
5147;SDS011;2592;48.140;7.614;2023-09-07T05:19:00;10.77;;;7.10;;
5147;SDS011;2592;48.140;7.614;2023-09-07T05:21:28;16.57;;;8.30;;
5147;SDS011;2592;48.140;7.614;2023-09-07T05:23:54;11.60;;;6.83;;
5147;SDS011;2592;48.140;7.614;2023-09-07T05:26:21;11.17;;;7.97;;
5147;SDS011;2592;48.140;7.614;2023-09-07T05:28:48;15.23;;;7.70;;
5147;SDS011;2592;48.140;7.614;2023-09-07T05:31:14;9.90;;;7.30;;
5147;SDS011;2592;48.140;7.614;2023-09-07T05:33:41;10.10;;;6.47;;
5147;SDS011;2592;48.140;7.614;2023-09-07T05:36:07;9.73;;;7.20;;
5147;SDS011;2592;48.140;7.614;2023-09-07T05:38:35;12.00;;;7.67;;
5147;SDS011;2592;48.140;7.614;2023-09-07T05:41:01;26.10;;;8.20;;
5147;SDS011;2592;48.140;7.614;2023-09-07T05:43:28;15.43;;;8.77;;
5147;SDS011;2592;48.140;7.614;2023-09-07T05:45:55;11.67;;;8.60;;
5147;SDS011;2592;48.140;7.614;2023-09-07T05:48:21;10.03;;;7.33;;
5147;SDS011;2592;48.140;7.614;2023-09-07T05:50:48;16.30;;;8.50;;
5147;SDS011;2592;48.140;7.614;2023-09-07T05:53:14;13.03;;;7.83;;
5147;SDS011;2592;48.140;7.614;2023-09-07T05:55:42;15.07;;;7.57;;
5147;SDS011;2592;48.140;7.614;2023-09-07T05:58:08;11.30;;;9.00;;
5147;SDS011;2592;48.140;7.614;2023-09-07T06:00:35;10.33;;;8.43;;
5147;SDS011;2592;48.140;7.614;2023-09-07T06:03:02;11.73;;;8.50;;
5147;SDS011;2592;48.140;7.614;2023-09-07T06:05:29;11.80;;;8.60;;
5147;SDS011;2592;48.140;7.614;2023-09-07T06:07:55;11.37;;;8.37;;
5147;SDS011;2592;48.140;7.614;2023-09-07T06:10:22;9.80;;;8.00;;
5147;SDS011;2592;48.140;7.614;2023-09-07T06:12:50;11.97;;;6.93;;
5147;SDS011;2592;48.140;7.614;2023-09-07T06:15:16;12.57;;;7.90;;
5147;SDS011;2592;48.140;7.614;2023-09-07T06:17:42;12.67;;;9.07;;
5147;SDS011;2592;48.140;7.614;2023-09-07T06:20:10;12.23;;;9.20;;
5147;SDS011;2592;48.140;7.614;2023-09-07T06:22:37;9.33;;;6.43;;
5147;SDS011;2592;48.140;7.614;2023-09-07T06:25:04;13.37;;;8.30;;
5147;SDS011;2592;48.140;7.614;2023-09-07T06:27:30;13.70;;;9.07;;
5147;SDS011;2592;48.140;7.614;2023-09-07T06:29:58;14.27;;;10.07;;
5147;SDS011;2592;48.140;7.614;2023-09-07T06:32:25;9.00;;;8.10;;
5147;SDS011;2592;48.140;7.614;2023-09-07T06:34:51;15.20;;;8.17;;
5147;SDS011;2592;48.140;7.614;2023-09-07T06:37:18;9.63;;;8.00;;
5147;SDS011;2592;48.140;7.614;2023-09-07T06:39:44;9.73;;;7.27;;
5147;SDS011;2592;48.140;7.614;2023-09-07T06:42:11;12.57;;;9.00;;
5147;SDS011;2592;48.140;7.614;2023-09-07T06:44:37;9.40;;;8.40;;
5147;SDS011;2592;48.140;7.614;2023-09-07T06:47:05;11.17;;;7.00;;
5147;SDS011;2592;48.140;7.614;2023-09-07T06:49:31;9.93;;;8.43;;
5147;SDS011;2592;48.140;7.614;2023-09-07T06:51:58;9.33;;;7.83;;
5147;SDS011;2592;48.140;7.614;2023-09-07T06:54:24;18.00;;;10.13;;
5147;SDS011;2592;48.140;7.614;2023-09-07T06:56:51;18.53;;;10.00;;
5147;SDS011;2592;48.140;7.614;2023-09-07T06:59:17;15.33;;;8.70;;
5147;SDS011;2592;48.140;7.614;2023-09-07T07:01:44;11.00;;;8.37;;
5147;SDS011;2592;48.140;7.614;2023-09-07T07:04:12;11.30;;;8.90;;
5147;SDS011;2592;48.140;7.614;2023-09-07T07:06:38;10.73;;;8.73;;
5147;SDS011;2592;48.140;7.614;2023-09-07T07:09:05;9.03;;;6.93;;
5147;SDS011;2592;48.140;7.614;2023-09-07T07:11:31;11.70;;;8.70;;
5147;SDS011;2592;48.140;7.614;2023-09-07T07:13:58;12.97;;;8.40;;
5147;SDS011;2592;48.140;7.614;2023-09-07T07:16:24;14.23;;;8.53;;
5147;SDS011;2592;48.140;7.614;2023-09-07T07:18:51;11.30;;;8.67;;
5147;SDS011;2592;48.140;7.614;2023-09-07T07:21:18;14.43;;;8.40;;
5147;SDS011;2592;48.140;7.614;2023-09-07T07:23:45;12.47;;;9.60;;
5147;SDS011;2592;48.140;7.614;2023-09-07T07:26:11;10.70;;;9.27;;
5147;SDS011;2592;48.140;7.614;2023-09-07T07:28:38;9.73;;;7.87;;
5147;SDS011;2592;48.140;7.614;2023-09-07T07:31:06;14.33;;;9.30;;
5147;SDS011;2592;48.140;7.614;2023-09-07T07:33:33;10.43;;;9.03;;
5147;SDS011;2592;48.140;7.614;2023-09-07T07:35:59;12.83;;;8.73;;
5147;SDS011;2592;48.140;7.614;2023-09-07T07:38:27;14.53;;;8.57;;
5147;SDS011;2592;48.140;7.614;2023-09-07T07:40:54;13.50;;;8.47;;
5147;SDS011;2592;48.140;7.614;2023-09-07T07:43:20;12.00;;;8.47;;
5147;SDS011;2592;48.140;7.614;2023-09-07T07:45:47;13.37;;;8.40;;
5147;SDS011;2592;48.140;7.614;2023-09-07T07:48:13;10.50;;;7.87;;
5147;SDS011;2592;48.140;7.614;2023-09-07T07:50:40;18.13;;;8.70;;
5147;SDS011;2592;48.140;7.614;2023-09-07T07:53:07;11.03;;;8.50;;
5147;SDS011;2592;48.140;7.614;2023-09-07T07:55:36;11.93;;;8.30;;
5147;SDS011;2592;48.140;7.614;2023-09-07T07:58:04;11.40;;;8.27;;
5147;SDS011;2592;48.140;7.614;2023-09-07T08:00:30;15.20;;;8.40;;
5147;SDS011;2592;48.140;7.614;2023-09-07T08:02:57;9.13;;;7.03;;
5147;SDS011;2592;48.140;7.614;2023-09-07T08:05:23;16.60;;;10.00;;
5147;SDS011;2592;48.140;7.614;2023-09-07T08:07:50;14.93;;;9.30;;
5147;SDS011;2592;48.140;7.614;2023-09-07T08:10:18;12.20;;;9.20;;
5147;SDS011;2592;48.140;7.614;2023-09-07T08:12:46;13.63;;;7.83;;
5147;SDS011;2592;48.140;7.614;2023-09-07T08:15:12;19.40;;;8.97;;
5147;SDS011;2592;48.140;7.614;2023-09-07T08:17:39;12.33;;;8.87;;
5147;SDS011;2592;48.140;7.614;2023-09-07T08:20:06;11.50;;;8.07;;
5147;SDS011;2592;48.140;7.614;2023-09-07T08:22:36;14.97;;;9.33;;
5147;SDS011;2592;48.140;7.614;2023-09-07T08:25:06;13.30;;;8.30;;
5147;SDS011;2592;48.140;7.614;2023-09-07T08:27:32;11.10;;;7.97;;
5147;SDS011;2592;48.140;7.614;2023-09-07T08:30:00;19.33;;;7.60;;
5147;SDS011;2592;48.140;7.614;2023-09-07T08:32:30;11.43;;;7.80;;
5147;SDS011;2592;48.140;7.614;2023-09-07T08:34:57;12.30;;;8.13;;
5147;SDS011;2592;48.140;7.614;2023-09-07T08:37:26;10.97;;;7.00;;
5147;SDS011;2592;48.140;7.614;2023-09-07T08:39:53;9.87;;;7.67;;
5147;SDS011;2592;48.140;7.614;2023-09-07T08:42:20;14.33;;;8.17;;
5147;SDS011;2592;48.140;7.614;2023-09-07T08:44:46;8.67;;;6.77;;
5147;SDS011;2592;48.140;7.614;2023-09-07T08:47:17;21.63;;;8.67;;
5147;SDS011;2592;48.140;7.614;2023-09-07T08:49:44;9.40;;;7.57;;
5147;SDS011;2592;48.140;7.614;2023-09-07T08:52:11;12.10;;;7.73;;
5147;SDS011;2592;48.140;7.614;2023-09-07T08:54:38;22.60;;;8.77;;
5147;SDS011;2592;48.140;7.614;2023-09-07T08:57:04;10.80;;;7.80;;
5147;SDS011;2592;48.140;7.614;2023-09-07T08:59:31;10.90;;;8.60;;
5147;SDS011;2592;48.140;7.614;2023-09-07T09:01:57;16.87;;;7.00;;
5147;SDS011;2592;48.140;7.614;2023-09-07T09:04:25;12.23;;;7.37;;
5147;SDS011;2592;48.140;7.614;2023-09-07T09:06:53;9.67;;;7.40;;
5147;SDS011;2592;48.140;7.614;2023-09-07T09:09:22;16.70;;;7.27;;
5147;SDS011;2592;48.140;7.614;2023-09-07T09:11:49;18.93;;;8.37;;
5147;SDS011;2592;48.140;7.614;2023-09-07T09:14:16;9.30;;;7.20;;
5147;SDS011;2592;48.140;7.614;2023-09-07T09:16:47;9.83;;;7.63;;
5147;SDS011;2592;48.140;7.614;2023-09-07T09:19:14;9.60;;;7.00;;
5147;SDS011;2592;48.140;7.614;2023-09-07T09:21:42;10.37;;;6.90;;
5147;SDS011;2592;48.140;7.614;2023-09-07T09:24:10;11.37;;;7.37;;
5147;SDS011;2592;48.140;7.614;2023-09-07T09:26:37;12.40;;;6.90;;
5147;SDS011;2592;48.140;7.614;2023-09-07T09:29:04;12.70;;;7.37;;
5147;SDS011;2592;48.140;7.614;2023-09-07T09:31:30;10.80;;;8.00;;
5147;SDS011;2592;48.140;7.614;2023-09-07T09:33:56;9.47;;;8.40;;
5147;SDS011;2592;48.140;7.614;2023-09-07T09:36:24;9.77;;;7.50;;
5147;SDS011;2592;48.140;7.614;2023-09-07T09:39:00;14.40;;;7.23;;
5147;SDS011;2592;48.140;7.614;2023-09-07T09:41:26;11.50;;;7.13;;
5147;SDS011;2592;48.140;7.614;2023-09-07T09:43:52;14.33;;;8.03;;
5147;SDS011;2592;48.140;7.614;2023-09-07T09:46:19;9.73;;;7.40;;
5147;SDS011;2592;48.140;7.614;2023-09-07T09:48:46;12.00;;;7.50;;
5147;SDS011;2592;48.140;7.614;2023-09-07T09:51:14;10.97;;;7.83;;
5147;SDS011;2592;48.140;7.614;2023-09-07T09:53:41;14.53;;;6.90;;
5147;SDS011;2592;48.140;7.614;2023-09-07T09:56:09;19.03;;;8.20;;
5147;SDS011;2592;48.140;7.614;2023-09-07T09:58:36;11.57;;;7.60;;
5147;SDS011;2592;48.140;7.614;2023-09-07T10:01:03;14.57;;;7.10;;
5147;SDS011;2592;48.140;7.614;2023-09-07T10:03:31;10.27;;;7.07;;
5147;SDS011;2592;48.140;7.614;2023-09-07T10:06:06;12.20;;;7.27;;
5147;SDS011;2592;48.140;7.614;2023-09-07T10:08:33;11.70;;;6.63;;
5147;SDS011;2592;48.140;7.614;2023-09-07T10:11:00;10.93;;;6.50;;
5147;SDS011;2592;48.140;7.614;2023-09-07T10:13:31;13.33;;;7.43;;
5147;SDS011;2592;48.140;7.614;2023-09-07T10:16:01;14.33;;;7.60;;
5147;SDS011;2592;48.140;7.614;2023-09-07T10:18:33;7.63;;;6.60;;
5147;SDS011;2592;48.140;7.614;2023-09-07T10:20:59;15.13;;;8.43;;
5147;SDS011;2592;48.140;7.614;2023-09-07T10:23:34;10.40;;;6.67;;
5147;SDS011;2592;48.140;7.614;2023-09-07T10:26:02;17.00;;;7.53;;
5147;SDS011;2592;48.140;7.614;2023-09-07T10:28:31;9.50;;;6.93;;
5147;SDS011;2592;48.140;7.614;2023-09-07T10:31:01;10.10;;;7.17;;
5147;SDS011;2592;48.140;7.614;2023-09-07T10:33:29;12.00;;;6.00;;
5147;SDS011;2592;48.140;7.614;2023-09-07T10:35:56;7.10;;;5.80;;
5147;SDS011;2592;48.140;7.614;2023-09-07T10:38:23;10.63;;;6.30;;
5147;SDS011;2592;48.140;7.614;2023-09-07T10:40:54;8.90;;;6.60;;
5147;SDS011;2592;48.140;7.614;2023-09-07T10:43:22;11.13;;;6.80;;
5147;SDS011;2592;48.140;7.614;2023-09-07T10:45:50;7.53;;;6.63;;
5147;SDS011;2592;48.140;7.614;2023-09-07T10:48:16;22.67;;;7.17;;
5147;SDS011;2592;48.140;7.614;2023-09-07T10:50:43;7.77;;;6.40;;
5147;SDS011;2592;48.140;7.614;2023-09-07T10:53:11;14.20;;;6.93;;
5147;SDS011;2592;48.140;7.614;2023-09-07T10:55:38;8.97;;;5.60;;
5147;SDS011;2592;48.140;7.614;2023-09-07T10:58:05;9.87;;;6.40;;
5147;SDS011;2592;48.140;7.614;2023-09-07T11:00:31;11.40;;;6.50;;
5147;SDS011;2592;48.140;7.614;2023-09-07T11:03:05;12.13;;;6.10;;
5147;SDS011;2592;48.140;7.614;2023-09-07T11:05:32;10.23;;;6.23;;
5147;SDS011;2592;48.140;7.614;2023-09-07T11:08:01;9.37;;;6.50;;
5147;SDS011;2592;48.140;7.614;2023-09-07T11:10:28;9.00;;;6.67;;
5147;SDS011;2592;48.140;7.614;2023-09-07T11:12:57;10.03;;;6.20;;
5147;SDS011;2592;48.140;7.614;2023-09-07T11:15:27;11.90;;;5.50;;
5147;SDS011;2592;48.140;7.614;2023-09-07T11:17:55;9.30;;;5.77;;
5147;SDS011;2592;48.140;7.614;2023-09-07T11:20:24;8.20;;;5.93;;
5147;SDS011;2592;48.140;7.614;2023-09-07T11:22:51;11.40;;;5.37;;
5147;SDS011;2592;48.140;7.614;2023-09-07T11:25:17;9.00;;;6.60;;
5147;SDS011;2592;48.140;7.614;2023-09-07T11:27:43;7.80;;;5.60;;
5147;SDS011;2592;48.140;7.614;2023-09-07T11:30:10;9.63;;;6.60;;
5147;SDS011;2592;48.140;7.614;2023-09-07T11:32:37;9.47;;;6.37;;
5147;SDS011;2592;48.140;7.614;2023-09-07T11:35:05;15.33;;;5.30;;
5147;SDS011;2592;48.140;7.614;2023-09-07T11:37:33;11.70;;;5.40;;
5147;SDS011;2592;48.140;7.614;2023-09-07T11:40:00;8.03;;;5.73;;
5147;SDS011;2592;48.140;7.614;2023-09-07T11:42:30;6.57;;;5.63;;
5147;SDS011;2592;48.140;7.614;2023-09-07T11:44:57;8.00;;;5.23;;
5147;SDS011;2592;48.140;7.614;2023-09-07T11:47:23;10.40;;;6.00;;
5147;SDS011;2592;48.140;7.614;2023-09-07T11:49:50;5.97;;;4.83;;
5147;SDS011;2592;48.140;7.614;2023-09-07T11:52:18;9.57;;;5.37;;
5147;SDS011;2592;48.140;7.614;2023-09-07T11:54:45;8.30;;;4.93;;
5147;SDS011;2592;48.140;7.614;2023-09-07T11:57:12;8.00;;;4.90;;
5147;SDS011;2592;48.140;7.614;2023-09-07T11:59:41;5.43;;;4.47;;
5147;SDS011;2592;48.140;7.614;2023-09-07T12:02:07;9.80;;;4.97;;
5147;SDS011;2592;48.140;7.614;2023-09-07T12:04:36;7.90;;;5.27;;
5147;SDS011;2592;48.140;7.614;2023-09-07T12:07:03;6.03;;;4.90;;
5147;SDS011;2592;48.140;7.614;2023-09-07T12:09:29;5.00;;;4.33;;
5147;SDS011;2592;48.140;7.614;2023-09-07T12:11:57;6.97;;;4.97;;
5147;SDS011;2592;48.140;7.614;2023-09-07T12:14:23;6.70;;;4.50;;
5147;SDS011;2592;48.140;7.614;2023-09-07T12:16:50;7.30;;;4.13;;
5147;SDS011;2592;48.140;7.614;2023-09-07T12:19:16;5.40;;;4.40;;
5147;SDS011;2592;48.140;7.614;2023-09-07T12:21:43;6.80;;;4.63;;
5147;SDS011;2592;48.140;7.614;2023-09-07T12:24:09;5.53;;;4.10;;
5147;SDS011;2592;48.140;7.614;2023-09-07T12:26:37;8.53;;;4.40;;
5147;SDS011;2592;48.140;7.614;2023-09-07T12:29:05;5.43;;;4.87;;
5147;SDS011;2592;48.140;7.614;2023-09-07T12:31:33;6.20;;;4.40;;
5147;SDS011;2592;48.140;7.614;2023-09-07T12:33:59;8.77;;;4.07;;
5147;SDS011;2592;48.140;7.614;2023-09-07T12:36:25;8.40;;;4.90;;
5147;SDS011;2592;48.140;7.614;2023-09-07T12:38:55;7.80;;;5.00;;
5147;SDS011;2592;48.140;7.614;2023-09-07T12:41:22;7.47;;;4.30;;
5147;SDS011;2592;48.140;7.614;2023-09-07T12:43:49;5.50;;;4.20;;
5147;SDS011;2592;48.140;7.614;2023-09-07T12:46:17;5.80;;;4.00;;
5147;SDS011;2592;48.140;7.614;2023-09-07T12:48:43;8.50;;;4.17;;
5147;SDS011;2592;48.140;7.614;2023-09-07T12:51:09;4.17;;;3.57;;
5147;SDS011;2592;48.140;7.614;2023-09-07T12:53:36;4.53;;;3.57;;
5147;SDS011;2592;48.140;7.614;2023-09-07T12:56:02;5.63;;;4.00;;
5147;SDS011;2592;48.140;7.614;2023-09-07T12:58:29;5.63;;;3.77;;
5147;SDS011;2592;48.140;7.614;2023-09-07T13:00:55;5.40;;;3.83;;
5147;SDS011;2592;48.140;7.614;2023-09-07T13:03:23;5.10;;;3.80;;
5147;SDS011;2592;48.140;7.614;2023-09-07T13:05:50;5.73;;;4.00;;
5147;SDS011;2592;48.140;7.614;2023-09-07T13:08:16;6.83;;;4.20;;
5147;SDS011;2592;48.140;7.614;2023-09-07T13:10:42;4.37;;;3.97;;
5147;SDS011;2592;48.140;7.614;2023-09-07T13:13:09;4.20;;;3.80;;
5147;SDS011;2592;48.140;7.614;2023-09-07T13:15:35;10.67;;;3.73;;
5147;SDS011;2592;48.140;7.614;2023-09-07T13:18:02;15.43;;;4.50;;
5147;SDS011;2592;48.140;7.614;2023-09-07T13:20:30;4.47;;;3.70;;
5147;SDS011;2592;48.140;7.614;2023-09-07T13:22:56;7.80;;;4.50;;
5147;SDS011;2592;48.140;7.614;2023-09-07T13:25:23;4.30;;;3.40;;
5147;SDS011;2592;48.140;7.614;2023-09-07T13:27:49;5.93;;;3.87;;
5147;SDS011;2592;48.140;7.614;2023-09-07T13:30:16;7.33;;;4.47;;
5147;SDS011;2592;48.140;7.614;2023-09-07T13:32:42;4.80;;;3.67;;
5147;SDS011;2592;48.140;7.614;2023-09-07T13:35:11;3.67;;;3.23;;
5147;SDS011;2592;48.140;7.614;2023-09-07T13:37:38;4.30;;;3.53;;
5147;SDS011;2592;48.140;7.614;2023-09-07T13:40:06;7.00;;;4.10;;
5147;SDS011;2592;48.140;7.614;2023-09-07T13:42:33;4.87;;;3.90;;
5147;SDS011;2592;48.140;7.614;2023-09-07T13:44:59;5.60;;;4.23;;
5147;SDS011;2592;48.140;7.614;2023-09-07T13:47:25;5.20;;;4.20;;
5147;SDS011;2592;48.140;7.614;2023-09-07T13:49:52;6.20;;;4.17;;
5147;SDS011;2592;48.140;7.614;2023-09-07T13:52:18;5.83;;;4.00;;
5147;SDS011;2592;48.140;7.614;2023-09-07T13:54:46;6.63;;;4.00;;
5147;SDS011;2592;48.140;7.614;2023-09-07T13:57:13;5.93;;;3.37;;
5147;SDS011;2592;48.140;7.614;2023-09-07T13:59:39;6.47;;;4.20;;
5147;SDS011;2592;48.140;7.614;2023-09-07T14:02:05;5.10;;;3.77;;
5147;SDS011;2592;48.140;7.614;2023-09-07T14:04:32;6.10;;;3.90;;
5147;SDS011;2592;48.140;7.614;2023-09-07T14:06:58;6.13;;;4.17;;
5147;SDS011;2592;48.140;7.614;2023-09-07T14:09:25;6.73;;;3.93;;
5147;SDS011;2592;48.140;7.614;2023-09-07T14:11:52;5.10;;;3.70;;
5147;SDS011;2592;48.140;7.614;2023-09-07T14:14:19;5.60;;;3.60;;
5147;SDS011;2592;48.140;7.614;2023-09-07T14:16:46;6.30;;;3.90;;
5147;SDS011;2592;48.140;7.614;2023-09-07T14:19:12;7.70;;;3.47;;
5147;SDS011;2592;48.140;7.614;2023-09-07T14:21:39;7.03;;;3.90;;
5147;SDS011;2592;48.140;7.614;2023-09-07T14:24:06;6.63;;;4.00;;
5147;SDS011;2592;48.140;7.614;2023-09-07T14:26:32;8.10;;;4.00;;
5147;SDS011;2592;48.140;7.614;2023-09-07T14:29:00;5.07;;;4.20;;
5147;SDS011;2592;48.140;7.614;2023-09-07T14:31:26;5.20;;;3.23;;
5147;SDS011;2592;48.140;7.614;2023-09-07T14:33:53;4.77;;;3.37;;
5147;SDS011;2592;48.140;7.614;2023-09-07T14:36:19;10.13;;;3.73;;
5147;SDS011;2592;48.140;7.614;2023-09-07T14:38:46;5.97;;;3.80;;
5147;SDS011;2592;48.140;7.614;2023-09-07T14:41:12;7.03;;;4.17;;
5147;SDS011;2592;48.140;7.614;2023-09-07T14:43:43;4.60;;;3.57;;
5147;SDS011;2592;48.140;7.614;2023-09-07T14:46:11;4.87;;;3.37;;
5147;SDS011;2592;48.140;7.614;2023-09-07T14:48:38;7.40;;;3.60;;
5147;SDS011;2592;48.140;7.614;2023-09-07T14:51:04;4.87;;;3.83;;
5147;SDS011;2592;48.140;7.614;2023-09-07T14:53:31;5.20;;;4.10;;
5147;SDS011;2592;48.140;7.614;2023-09-07T14:55:57;4.40;;;3.23;;
5147;SDS011;2592;48.140;7.614;2023-09-07T14:58:23;5.20;;;3.60;;
5147;SDS011;2592;48.140;7.614;2023-09-07T15:00:50;6.00;;;4.30;;
5147;SDS011;2592;48.140;7.614;2023-09-07T15:03:18;4.73;;;3.57;;
5147;SDS011;2592;48.140;7.614;2023-09-07T15:05:44;4.37;;;3.40;;